Impacts METAR Board INFO
IDs:

KFLL - Ft Lauderdale-Hollyw, FL, US

Updated at: 2054 UTC 13 Dec 2017
Potential Impact None Slight Moderate High
Time13/08Z 13/09Z 13/10Z 13/11Z 13/12Z 13/13Z 13/14Z 13/15Z 13/16Z 13/17Z 13/18Z 13/19Z 13/20Z
VIS10 10 10 10 10 10 10 10 10 10 10 10 10
CIG-- -- -- -- -- -- -- -- -- -- -- -- --
CoverCLRCLRCLRCLRFEWCLRCLRCLRCLRCLRCLRFEWFEW
FltCatVFRVFRVFRVFRVFRVFRVFRVFRVFRVFRVFRVFRVFR
WX--------------------------
WDir320320320330330320320330310350310300320
WSpd8 8 8 7 6 5 11 9 6 7 8 7 5
WGst-- -- -- -- -- -- -- -- -- -- -- -- --
Raw hourly METARs
KFLL 130753Z 32008KT 10SM CLR 14/11 A2998 RMK AO2 SLP153 T01440111
KFLL 130853Z 32008KT 10SM CLR 13/08 A3000 RMK AO2 SLP157 T01330083 51009
KFLL 130953Z 32008KT 10SM CLR 12/08 A3001 RMK AO2 SLP161 T01220078
KFLL 131053Z 33007KT 10SM CLR 11/06 A3005 RMK AO2 SLP174 T01110056
KFLL 131153Z 33006KT 10SM FEW033 11/05 A3007 RMK AO2 SLP182 T01060050 10167 20106 53025
KFLL 131253Z 32005KT 10SM CLR 12/05 A3010 RMK AO2 SLP193 T01170050
KFLL 131353Z 32011KT 10SM CLR 13/05 A3012 RMK AO2 SLP200 T01280050
KFLL 131453Z 33009KT 10SM CLR 14/04 A3013 RMK AO2 SLP203 T01440044 51022
KFLL 131553Z 31006KT 10SM CLR 16/03 A3012 RMK AO2 SLP198 T01560033
KFLL 131653Z 35007KT 10SM CLR 17/03 A3009 RMK AO2 SLP190 T01720033
KFLL 131753Z 31008KT 10SM CLR 17/03 A3006 RMK AO2 SLP179 T01720033 10178 20106 58024
KFLL 131853Z 30007KT 10SM FEW250 18/04 A3004 RMK AO2 SLP170 T01830044
KFLL 131953Z 32005KT 10SM FEW250 19/03 A3004 RMK AO2 SLP170 T01940033